createdAt,value
2018-06-03T00:00:07.886Z,1009.39
2018-06-03T00:01:09.273Z,1009.40
2018-06-03T00:02:10.667Z,1009.45
2018-06-03T00:03:12.053Z,1009.44
2018-06-03T00:04:13.441Z,1009.45
2018-06-03T00:05:14.827Z,1009.44
2018-06-03T00:06:16.220Z,1009.44
2018-06-03T00:07:17.611Z,1009.44
2018-06-03T00:08:19.003Z,1009.46
2018-06-03T00:09:20.389Z,1009.48
2018-06-03T00:10:21.795Z,1009.52
2018-06-03T00:11:23.189Z,1009.50
2018-06-03T00:12:24.569Z,1009.50
2018-06-03T00:13:25.957Z,1009.52
2018-06-03T00:14:27.351Z,1009.51
2018-06-03T00:15:28.735Z,1009.54
2018-06-03T00:16:30.128Z,1009.55
2018-06-03T00:17:31.518Z,1009.57
2018-06-03T00:18:32.907Z,1009.53
2018-06-03T00:19:34.300Z,1009.57
2018-06-03T00:20:35.704Z,1009.57
2018-06-03T00:21:37.096Z,1009.59
2018-06-03T00:22:39.386Z,1009.61
2018-06-03T00:23:40.770Z,1009.60
2018-06-03T00:24:42.160Z,1009.63
2018-06-03T00:25:43.560Z,1009.64
2018-06-03T00:26:44.946Z,1009.62
2018-06-03T00:27:46.329Z,1009.66
2018-06-03T00:28:47.719Z,1009.66
2018-06-03T00:29:49.110Z,1009.63
2018-06-03T00:30:50.504Z,1009.66
2018-06-03T00:31:51.895Z,1009.68
2018-06-03T00:32:53.293Z,1009.65
2018-06-03T00:33:54.675Z,1009.68
2018-06-03T00:34:56.069Z,1009.67
2018-06-03T00:35:57.451Z,1009.64
2018-06-03T00:36:58.837Z,1009.68
2018-06-03T00:38:00.231Z,1009.64
2018-06-03T00:39:01.614Z,1009.65
2018-06-03T00:40:03.013Z,1009.66
2018-06-03T00:41:04.394Z,1009.63
2018-06-03T00:42:05.794Z,1009.63
2018-06-03T00:43:07.184Z,1009.68
2018-06-03T00:44:08.626Z,1009.67
2018-06-03T00:45:10.028Z,1009.64
2018-06-03T00:46:11.410Z,1009.65
2018-06-03T00:47:13.802Z,1009.65
2018-06-03T00:48:15.192Z,1009.64
2018-06-03T00:49:16.586Z,1009.64
2018-06-03T00:50:17.974Z,1009.66
2018-06-03T00:51:19.369Z,1009.67
2018-06-03T00:52:20.754Z,1009.68
2018-06-03T00:53:22.171Z,1009.69
2018-06-03T00:54:23.555Z,1009.66
2018-06-03T00:55:24.955Z,1009.70
2018-06-03T00:56:26.339Z,1009.70
2018-06-03T00:57:27.730Z,1009.73
2018-06-03T00:58:29.116Z,1009.69
2018-06-03T00:59:30.517Z,1009.68
2018-06-03T01:00:31.909Z,1009.67
2018-06-03T01:01:33.299Z,1009.69
2018-06-03T01:02:34.691Z,1009.66
2018-06-03T01:03:36.069Z,1009.67
2018-06-03T01:04:37.470Z,1009.67
2018-06-03T01:05:38.858Z,1009.65
2018-06-03T01:06:40.255Z,1009.64
2018-06-03T01:07:41.643Z,1009.64
2018-06-03T01:08:43.034Z,1009.63
2018-06-03T01:09:45.141Z,1009.60
2018-06-03T01:10:46.516Z,1009.61
2018-06-03T01:11:47.915Z,1009.62
2018-06-03T01:12:49.293Z,1009.63
2018-06-03T01:13:50.693Z,1009.61
2018-06-03T01:14:52.095Z,1009.61
2018-06-03T01:15:53.472Z,1009.66
2018-06-03T01:16:54.872Z,1009.64
2018-06-03T01:17:56.262Z,1009.67
2018-06-03T01:18:57.642Z,1009.67
2018-06-03T01:19:59.036Z,1009.66
2018-06-03T01:21:00.432Z,1009.64
2018-06-03T01:22:01.818Z,1009.64
2018-06-03T01:23:03.202Z,1009.67
2018-06-03T01:24:04.607Z,1009.57
2018-06-03T01:25:05.988Z,1009.61
2018-06-03T01:26:07.384Z,1009.60
2018-06-03T01:27:08.771Z,1009.59
2018-06-03T01:28:10.149Z,1009.60
2018-06-03T01:29:11.543Z,1009.56
2018-06-03T01:30:12.931Z,1009.61
2018-06-03T01:31:14.318Z,1009.60
2018-06-03T01:32:15.719Z,1009.59
2018-06-03T01:33:17.107Z,1009.60
2018-06-03T01:34:18.501Z,1009.60
2018-06-03T01:35:19.879Z,1009.62
2018-06-03T01:36:21.287Z,1009.63
2018-06-03T01:37:22.657Z,1009.63
2018-06-03T01:38:24.057Z,1009.62
2018-06-03T01:39:25.439Z,1009.61
2018-06-03T01:40:26.830Z,1009.57
2018-06-03T01:41:28.219Z,1009.57
2018-06-03T01:42:29.611Z,1009.55
2018-06-03T01:43:30.995Z,1009.51
2018-06-03T01:44:32.392Z,1009.52
2018-06-03T01:45:33.776Z,1009.51
2018-06-03T01:46:35.174Z,1009.49
2018-06-03T01:47:36.554Z,1009.45
2018-06-03T01:48:37.946Z,1009.49
2018-06-03T01:49:39.328Z,1009.48
2018-06-03T01:50:40.728Z,1009.50
2018-06-03T01:51:42.118Z,1009.53
2018-06-03T01:52:43.499Z,1009.53
2018-06-03T01:53:44.891Z,1009.50
2018-06-03T01:54:46.288Z,1009.54
2018-06-03T01:55:47.663Z,1009.52
2018-06-03T01:56:49.057Z,1009.50
2018-06-03T01:57:50.441Z,1009.54
2018-06-03T01:58:51.823Z,1009.53
2018-06-03T01:59:53.217Z,1009.51
2018-06-03T02:00:54.615Z,1009.54
2018-06-03T02:01:55.993Z,1009.53
2018-06-03T02:02:57.389Z,1009.46
2018-06-03T02:03:58.775Z,1009.44
2018-06-03T02:05:00.161Z,1009.46
2018-06-03T02:06:01.558Z,1009.48
2018-06-03T02:07:02.940Z,1009.45
2018-06-03T02:08:04.326Z,1009.47
2018-06-03T02:09:05.724Z,1009.45
2018-06-03T02:10:07.104Z,1009.44
2018-06-03T02:11:08.520Z,1009.42
2018-06-03T02:12:09.888Z,1009.37
2018-06-03T02:13:11.285Z,1009.43
2018-06-03T02:14:13.222Z,1009.42
2018-06-03T02:15:14.617Z,1009.39
2018-06-03T02:16:16.006Z,1009.42
2018-06-03T02:17:17.395Z,1009.47
2018-06-03T02:18:18.783Z,1009.51
2018-06-03T02:19:20.170Z,1009.44
2018-06-03T02:20:22.135Z,1009.47
2018-06-03T02:21:23.523Z,1009.48
2018-06-03T02:22:24.900Z,1009.51
2018-06-03T02:23:26.292Z,1009.54
2018-06-03T02:24:27.681Z,1009.47
2018-06-03T02:25:29.079Z,1009.51
2018-06-03T02:26:30.461Z,1009.52
2018-06-03T02:27:31.859Z,1009.49
2018-06-03T02:28:33.247Z,1009.44
2018-06-03T02:29:34.642Z,1009.49
2018-06-03T02:30:36.022Z,1009.48
2018-06-03T02:31:37.406Z,1009.51
2018-06-03T02:32:38.805Z,1009.52
2018-06-03T02:33:40.192Z,1009.52
2018-06-03T02:34:41.585Z,1009.51
2018-06-03T02:35:42.973Z,1009.51
2018-06-03T02:36:44.352Z,1009.48
2018-06-03T02:37:45.748Z,1009.46
2018-06-03T02:38:47.133Z,1009.45
2018-06-03T02:39:48.511Z,1009.49
2018-06-03T02:40:49.917Z,1009.46
2018-06-03T02:41:51.302Z,1009.50
2018-06-03T02:42:52.711Z,1009.50
2018-06-03T02:43:54.096Z,1009.50
2018-06-03T02:44:55.485Z,1009.51
2018-06-03T02:45:56.891Z,1009.50
2018-06-03T02:46:58.284Z,1009.53
2018-06-03T02:47:59.730Z,1009.52
2018-06-03T02:49:01.063Z,1009.53
2018-06-03T02:50:02.443Z,1009.52
2018-06-03T02:51:03.839Z,1009.54
2018-06-03T02:52:05.227Z,1009.55
2018-06-03T02:53:06.619Z,1009.56
2018-06-03T02:54:08.005Z,1009.59
2018-06-03T02:55:09.389Z,1009.62
2018-06-03T02:56:10.787Z,1009.56
2018-06-03T02:57:12.170Z,1009.61
2018-06-03T02:58:13.551Z,1009.63
2018-06-03T02:59:14.945Z,1009.61
2018-06-03T03:00:16.328Z,1009.66
2018-06-03T03:01:17.725Z,1009.65
2018-06-03T03:02:19.117Z,1009.67
2018-06-03T03:03:20.512Z,1009.68
2018-06-03T03:04:21.909Z,1009.70
2018-06-03T03:05:23.307Z,1009.72
2018-06-03T03:06:24.689Z,1009.71
2018-06-03T03:07:26.076Z,1009.72
2018-06-03T03:08:27.466Z,1009.70
2018-06-03T03:09:28.864Z,1009.74
2018-06-03T03:10:30.254Z,1009.70
2018-06-03T03:11:31.641Z,1009.72
2018-06-03T03:12:33.038Z,1009.72
2018-06-03T03:13:35.384Z,1009.73
2018-06-03T03:14:36.782Z,1009.75
2018-06-03T03:15:38.182Z,1009.71
2018-06-03T03:16:39.580Z,1009.72
2018-06-03T03:17:40.973Z,1009.73
2018-06-03T03:18:42.372Z,1009.73
2018-06-03T03:19:43.752Z,1009.77
2018-06-03T03:20:45.151Z,1009.75
2018-06-03T03:21:46.535Z,1009.78
2018-06-03T03:22:47.924Z,1009.74
2018-06-03T03:23:49.317Z,1009.78
2018-06-03T03:24:50.701Z,1009.77
2018-06-03T03:25:52.098Z,1009.77
2018-06-03T03:26:54.131Z,1009.79
2018-06-03T03:27:55.522Z,1009.79
2018-06-03T03:28:56.921Z,1009.79
2018-06-03T03:29:58.303Z,1009.76
2018-06-03T03:30:59.696Z,1009.81
2018-06-03T03:32:01.110Z,1009.80
2018-06-03T03:33:03.263Z,1009.82
2018-06-03T03:34:04.662Z,1009.81
2018-06-03T03:35:06.039Z,1009.83
2018-06-03T03:36:08.156Z,1009.82
2018-06-03T03:37:09.545Z,1009.84
2018-06-03T03:38:10.944Z,1009.85
2018-06-03T03:39:12.332Z,1009.86
2018-06-03T03:40:13.720Z,1009.85
2018-06-03T03:41:15.116Z,1009.81
2018-06-03T03:42:16.511Z,1009.81
2018-06-03T03:43:17.900Z,1009.80
2018-06-03T03:44:19.293Z,1009.80
2018-06-03T03:45:20.681Z,1009.81
2018-06-03T03:46:22.079Z,1009.81
2018-06-03T03:47:23.476Z,1009.82
2018-06-03T03:48:24.879Z,1009.84
2018-06-03T03:49:26.279Z,1009.82
2018-06-03T03:50:27.667Z,1009.85
2018-06-03T03:51:29.047Z,1009.86
2018-06-03T03:52:30.446Z,1009.87
2018-06-03T03:53:32.503Z,1009.85
2018-06-03T03:54:33.891Z,1009.83
2018-06-03T03:55:35.293Z,1009.82
2018-06-03T03:56:36.695Z,1009.81
2018-06-03T03:57:38.100Z,1009.85
2018-06-03T03:58:39.476Z,1009.80
2018-06-03T03:59:40.878Z,1009.83
2018-06-03T04:00:42.476Z,1009.83
2018-06-03T04:01:43.878Z,1009.90
2018-06-03T04:02:45.268Z,1009.85
2018-06-03T04:03:46.659Z,1009.83
2018-06-03T04:04:48.062Z,1009.85
2018-06-03T04:05:49.455Z,1009.80
2018-06-03T04:06:50.854Z,1009.82
2018-06-03T04:07:52.245Z,1009.85
2018-06-03T04:08:53.646Z,1009.85
2018-06-03T04:09:55.040Z,1009.86
2018-06-03T04:10:56.429Z,1009.79
2018-06-03T04:11:57.822Z,1009.79
2018-06-03T04:12:59.213Z,1009.85
2018-06-03T04:14:00.598Z,1009.80
2018-06-03T04:15:01.995Z,1009.80
2018-06-03T04:16:03.394Z,1009.82
2018-06-03T04:17:04.790Z,1009.83
2018-06-03T04:18:06.211Z,1009.80
2018-06-03T04:19:07.584Z,1009.81
2018-06-03T04:20:08.972Z,1009.85
2018-06-03T04:21:10.373Z,1009.83
2018-06-03T04:22:11.785Z,1009.80
2018-06-03T04:23:13.184Z,1009.84
2018-06-03T04:24:14.582Z,1009.78
2018-06-03T04:25:15.977Z,1009.80
2018-06-03T04:26:17.367Z,1009.82
2018-06-03T04:27:18.765Z,1009.85
2018-06-03T04:28:20.158Z,1009.86
2018-06-03T04:29:21.559Z,1009.86
2018-06-03T04:30:22.961Z,1009.85
2018-06-03T04:31:24.348Z,1009.84
2018-06-03T04:32:25.744Z,1009.86
2018-06-03T04:33:27.128Z,1009.84
2018-06-03T04:34:28.515Z,1009.92
2018-06-03T04:35:29.907Z,1009.87
2018-06-03T04:36:31.309Z,1009.92
2018-06-03T04:37:32.702Z,1009.95
2018-06-03T04:38:34.084Z,1009.95
2018-06-03T04:39:35.482Z,1009.94
2018-06-03T04:40:36.876Z,1009.97
2018-06-03T04:41:38.266Z,1009.97
2018-06-03T04:42:39.671Z,1009.95
2018-06-03T04:43:41.069Z,1009.96
2018-06-03T04:44:42.467Z,1009.95
2018-06-03T04:45:43.848Z,1009.95
2018-06-03T04:46:45.251Z,1009.97
2018-06-03T04:47:46.643Z,1009.88
2018-06-03T04:48:48.091Z,1009.96
2018-06-03T04:49:49.430Z,1009.96
2018-06-03T04:50:50.818Z,1009.93
2018-06-03T04:51:52.225Z,1009.98
2018-06-03T04:52:53.623Z,1009.95
2018-06-03T04:53:55.015Z,1009.95
2018-06-03T04:54:56.423Z,1010.00
2018-06-03T04:55:57.815Z,1009.99
2018-06-03T04:56:59.226Z,1009.99
2018-06-03T04:58:00.629Z,1009.99
2018-06-03T04:59:02.018Z,1010.07
2018-06-03T05:00:03.412Z,1010.02
2018-06-03T05:01:04.802Z,1010.07
2018-06-03T05:02:06.212Z,1010.10
2018-06-03T05:03:07.600Z,1010.12
2018-06-03T05:04:08.994Z,1010.10
2018-06-03T05:05:10.390Z,1010.11
2018-06-03T05:06:11.788Z,1010.15
2018-06-03T05:07:13.184Z,1010.10
2018-06-03T05:08:14.582Z,1010.13
2018-06-03T05:09:15.968Z,1010.10
2018-06-03T05:10:17.378Z,1010.11
2018-06-03T05:11:18.780Z,1010.09
2018-06-03T05:12:20.188Z,1010.11
2018-06-03T05:13:21.575Z,1010.10
2018-06-03T05:14:22.966Z,1010.12
2018-06-03T05:15:24.380Z,1010.08
2018-06-03T05:16:25.764Z,1010.07
2018-06-03T05:17:27.167Z,1010.11
2018-06-03T05:18:28.560Z,1010.10
2018-06-03T05:19:29.961Z,1010.11
2018-06-03T05:20:31.350Z,1010.10
2018-06-03T05:21:32.741Z,1010.13
2018-06-03T05:22:34.139Z,1010.11
2018-06-03T05:23:35.544Z,1010.15
2018-06-03T05:24:36.936Z,1010.11
2018-06-03T05:25:38.339Z,1010.16
2018-06-03T05:26:39.741Z,1010.17
2018-06-03T05:27:41.133Z,1010.12
2018-06-03T05:28:42.541Z,1010.09
2018-06-03T05:29:43.936Z,1010.10
2018-06-03T05:30:45.330Z,1010.13
2018-06-03T05:31:46.728Z,1010.18
2018-06-03T05:32:48.123Z,1010.15
2018-06-03T05:33:49.530Z,1010.12
2018-06-03T05:34:50.925Z,1010.15
2018-06-03T05:35:52.324Z,1010.15
2018-06-03T05:36:53.717Z,1010.11
2018-06-03T05:37:55.117Z,1010.11
2018-06-03T05:38:56.517Z,1010.06
2018-06-03T05:39:57.920Z,1010.07
2018-06-03T05:40:59.331Z,1010.14
2018-06-03T05:42:00.729Z,1010.14
2018-06-03T05:43:02.135Z,1010.15
2018-06-03T05:44:03.528Z,1010.16
2018-06-03T05:45:04.923Z,1010.17
2018-06-03T05:46:06.325Z,1010.15
2018-06-03T05:47:07.735Z,1010.19
2018-06-03T05:48:09.126Z,1010.21
2018-06-03T05:49:10.525Z,1010.23
2018-06-03T05:50:11.931Z,1010.21
2018-06-03T05:51:13.333Z,1010.18
2018-06-03T05:52:14.744Z,1010.17
2018-06-03T05:53:16.752Z,1010.16
2018-06-03T05:54:18.152Z,1010.14
2018-06-03T05:55:19.542Z,1010.21
2018-06-03T05:56:20.952Z,1010.20
2018-06-03T05:57:22.346Z,1010.20
2018-06-03T05:58:23.738Z,1010.24
2018-06-03T05:59:25.134Z,1010.23
2018-06-03T06:00:26.542Z,1010.26
2018-06-03T06:01:27.937Z,1010.22
2018-06-03T06:02:29.335Z,1010.22
2018-06-03T06:03:30.726Z,1010.21
2018-06-03T06:04:32.133Z,1010.23
2018-06-03T06:05:33.534Z,1010.21
2018-06-03T06:06:34.938Z,1010.26
2018-06-03T06:07:36.350Z,1010.24
2018-06-03T06:08:37.746Z,1010.23
2018-06-03T06:09:39.156Z,1010.29
2018-06-03T06:10:40.552Z,1010.27
2018-06-03T06:11:41.944Z,1010.31
2018-06-03T06:12:43.354Z,1010.27
2018-06-03T06:13:44.737Z,1010.28
2018-06-03T06:14:46.132Z,1010.30
2018-06-03T06:15:47.531Z,1010.32
2018-06-03T06:16:48.936Z,1010.29
2018-06-03T06:17:50.349Z,1010.30
2018-06-03T06:18:51.741Z,1010.36
2018-06-03T06:19:53.153Z,1010.36
2018-06-03T06:20:54.542Z,1010.40
2018-06-03T06:21:55.948Z,1010.34
2018-06-03T06:22:57.345Z,1010.32
2018-06-03T06:23:58.749Z,1010.29
2018-06-03T06:25:00.150Z,1010.34
2018-06-03T06:26:01.562Z,1010.32
2018-06-03T06:27:02.980Z,1010.30
2018-06-03T06:28:04.379Z,1010.34
2018-06-03T06:29:05.764Z,1010.32
2018-06-03T06:30:07.152Z,1010.31
2018-06-03T06:31:08.564Z,1010.34
2018-06-03T06:32:09.961Z,1010.34
2018-06-03T06:33:11.363Z,1010.29
2018-06-03T06:34:12.755Z,1010.30
2018-06-03T06:35:14.169Z,1010.29
2018-06-03T06:36:15.560Z,1010.33
2018-06-03T06:37:16.955Z,1010.33
2018-06-03T06:38:18.348Z,1010.34
2018-06-03T06:39:19.749Z,1010.35
2018-06-03T06:40:21.155Z,1010.34
2018-06-03T06:41:22.554Z,1010.39
2018-06-03T06:42:23.941Z,1010.37
2018-06-03T06:43:25.335Z,1010.40
2018-06-03T06:44:26.770Z,1010.40
2018-06-03T06:45:28.175Z,1010.42
2018-06-03T06:46:29.552Z,1010.41
2018-06-03T06:47:30.957Z,1010.41
2018-06-03T06:48:32.347Z,1010.44
2018-06-03T06:49:33.757Z,1010.40
2018-06-03T06:50:35.148Z,1010.41
2018-06-03T06:51:36.551Z,1010.42
2018-06-03T06:52:37.945Z,1010.47
2018-06-03T06:53:39.343Z,1010.49
2018-06-03T06:54:40.743Z,1010.42
2018-06-03T06:55:42.129Z,1010.46
2018-06-03T06:56:43.548Z,1010.44
2018-06-03T06:57:44.945Z,1010.45
2018-06-03T06:58:46.349Z,1010.45
2018-06-03T06:59:47.756Z,1010.42
2018-06-03T07:00:49.160Z,1010.44
2018-06-03T07:01:50.566Z,1010.43
2018-06-03T07:02:51.972Z,1010.42
2018-06-03T07:03:54.074Z,1010.44
2018-06-03T07:04:55.480Z,1010.41
2018-06-03T07:05:56.873Z,1010.42
2018-06-03T07:06:58.286Z,1010.47
2018-06-03T07:07:59.675Z,1010.46
2018-06-03T07:09:01.076Z,1010.50
2018-06-03T07:10:02.486Z,1010.49
2018-06-03T07:11:03.889Z,1010.50
2018-06-03T07:12:05.279Z,1010.48
2018-06-03T07:13:06.717Z,1010.54
2018-06-03T07:14:08.092Z,1010.53
2018-06-03T07:15:09.474Z,1010.54
2018-06-03T07:16:10.862Z,1010.54
2018-06-03T07:17:12.257Z,1010.54
2018-06-03T07:18:13.667Z,1010.53
2018-06-03T07:19:15.056Z,1010.56
2018-06-03T07:20:16.445Z,1010.57
2018-06-03T07:21:17.853Z,1010.56
2018-06-03T07:22:19.243Z,1010.58
2018-06-03T07:23:20.693Z,1010.54
2018-06-03T07:24:22.042Z,1010.60
2018-06-03T07:25:23.436Z,1010.59
2018-06-03T07:26:24.836Z,1010.60
2018-06-03T07:27:26.223Z,1010.58
2018-06-03T07:28:27.619Z,1010.56
2018-06-03T07:29:29.015Z,1010.60
2018-06-03T07:30:30.418Z,1010.62
2018-06-03T07:31:31.819Z,1010.66
2018-06-03T07:32:33.219Z,1010.63
2018-06-03T07:33:34.621Z,1010.62
2018-06-03T07:34:36.021Z,1010.62
2018-06-03T07:35:37.416Z,1010.64
2018-06-03T07:36:38.815Z,1010.66
2018-06-03T07:37:40.205Z,1010.68
2018-06-03T07:38:41.602Z,1010.66
2018-06-03T07:39:42.998Z,1010.69
2018-06-03T07:40:44.383Z,1010.73
2018-06-03T07:41:45.791Z,1010.70
2018-06-03T07:42:47.200Z,1010.71
2018-06-03T07:43:48.620Z,1010.75
2018-06-03T07:44:49.994Z,1010.74
2018-06-03T07:45:51.390Z,1010.74
2018-06-03T07:46:52.787Z,1010.77
2018-06-03T07:47:54.193Z,1010.80
2018-06-03T07:48:55.590Z,1010.82
2018-06-03T07:49:56.982Z,1010.81
2018-06-03T07:50:58.386Z,1010.80
2018-06-03T07:51:59.802Z,1010.81
2018-06-03T07:53:01.208Z,1010.85
2018-06-03T07:54:02.610Z,1010.85
2018-06-03T07:55:04.004Z,1010.86
2018-06-03T07:56:05.408Z,1010.83
2018-06-03T07:57:06.796Z,1010.83
2018-06-03T07:58:08.209Z,1010.85
2018-06-03T07:59:09.601Z,1010.83
2018-06-03T08:00:10.999Z,1010.85
2018-06-03T08:01:12.404Z,1010.80
2018-06-03T08:02:13.808Z,1010.85
2018-06-03T08:03:15.211Z,1010.83
2018-06-03T08:04:16.611Z,1010.84
2018-06-03T08:05:18.001Z,1010.81
2018-06-03T08:06:19.392Z,1010.82
2018-06-03T08:07:20.799Z,1010.82
2018-06-03T08:08:22.192Z,1010.81
2018-06-03T08:09:23.585Z,1010.81
2018-06-03T08:10:24.992Z,1010.79
2018-06-03T08:11:26.395Z,1010.79
2018-06-03T08:12:27.799Z,1010.78
2018-06-03T08:13:29.197Z,1010.79
2018-06-03T08:14:30.588Z,1010.78
2018-06-03T08:15:31.989Z,1010.77
2018-06-03T08:16:33.384Z,1010.80
2018-06-03T08:17:34.773Z,1010.76
2018-06-03T08:18:36.171Z,1010.78
2018-06-03T08:19:37.574Z,1010.76
2018-06-03T08:20:38.966Z,1010.81
2018-06-03T08:21:40.396Z,1010.78
2018-06-03T08:22:41.857Z,1010.84
2018-06-03T08:23:43.195Z,1010.84
2018-06-03T08:24:44.606Z,1010.83
2018-06-03T08:25:46.003Z,1010.86
2018-06-03T08:26:47.402Z,1010.83
2018-06-03T08:27:48.808Z,1010.85
2018-06-03T08:28:50.198Z,1010.84
2018-06-03T08:29:51.633Z,1010.84
2018-06-03T08:30:52.995Z,1010.85
2018-06-03T08:31:54.390Z,1010.87
2018-06-03T08:32:55.780Z,1010.87
2018-06-03T08:33:57.198Z,1010.87
2018-06-03T08:34:58.602Z,1010.89
2018-06-03T08:36:00.012Z,1010.92
2018-06-03T08:37:01.415Z,1010.90
2018-06-03T08:38:02.819Z,1010.93
2018-06-03T08:39:05.047Z,1010.91
2018-06-03T08:40:06.456Z,1010.91
2018-06-03T08:41:07.861Z,1010.92
2018-06-03T08:42:09.256Z,1010.93
2018-06-03T08:43:10.654Z,1010.92
2018-06-03T08:44:12.063Z,1010.97
2018-06-03T08:45:13.460Z,1010.98
2018-06-03T08:46:14.847Z,1010.98
2018-06-03T08:47:16.248Z,1010.96
2018-06-03T08:48:17.659Z,1011.00
2018-06-03T08:49:19.039Z,1010.98
2018-06-03T08:50:20.448Z,1011.00
2018-06-03T08:51:21.862Z,1011.07
2018-06-03T08:52:23.258Z,1011.03
2018-06-03T08:53:24.666Z,1011.05
2018-06-03T08:54:26.075Z,1011.07
2018-06-03T08:55:27.486Z,1011.13
2018-06-03T08:56:28.878Z,1011.09
2018-06-03T08:57:30.292Z,1011.12
2018-06-03T08:58:31.686Z,1011.15
2018-06-03T08:59:33.086Z,1011.15
2018-06-03T09:00:34.524Z,1011.14
2018-06-03T09:01:35.891Z,1011.16
2018-06-03T09:02:37.288Z,1011.12
2018-06-03T09:03:38.684Z,1011.09
2018-06-03T09:04:40.094Z,1011.08
2018-06-03T09:05:41.500Z,1011.07
2018-06-03T09:06:42.887Z,1011.07
2018-06-03T09:07:44.280Z,1011.03
2018-06-03T09:08:45.686Z,1011.07
2018-06-03T09:09:47.099Z,1011.05
2018-06-03T09:10:48.497Z,1011.05
2018-06-03T09:11:49.924Z,1011.06
2018-06-03T09:12:51.314Z,1011.05
2018-06-03T09:13:52.719Z,1011.05
2018-06-03T09:14:54.118Z,1011.02
2018-06-03T09:15:55.519Z,1011.05
2018-06-03T09:16:56.924Z,1011.03
2018-06-03T09:17:58.311Z,1011.03
2018-06-03T09:18:59.721Z,1011.02
2018-06-03T09:20:01.110Z,1011.02
2018-06-03T09:21:02.503Z,1011.02
2018-06-03T09:22:03.910Z,1011.02
2018-06-03T09:23:05.310Z,1011.02
2018-06-03T09:24:06.703Z,1011.04
2018-06-03T09:25:08.102Z,1011.01
2018-06-03T09:26:09.488Z,1011.01
2018-06-03T09:27:10.895Z,1011.01
2018-06-03T09:28:12.285Z,1010.97
2018-06-03T09:29:13.703Z,1010.97
2018-06-03T09:30:15.093Z,1010.96
2018-06-03T09:31:16.499Z,1010.97
2018-06-03T09:32:17.879Z,1011.00
2018-06-03T09:33:19.260Z,1010.94
2018-06-03T09:34:20.669Z,1011.00
2018-06-03T09:35:22.062Z,1010.95
2018-06-03T09:36:23.470Z,1010.97
2018-06-03T09:37:24.864Z,1010.94
2018-06-03T09:38:26.266Z,1010.97
2018-06-03T09:39:27.670Z,1010.94
2018-06-03T09:40:29.066Z,1010.96
2018-06-03T09:41:30.483Z,1010.97
2018-06-03T09:42:31.893Z,1010.95
2018-06-03T09:43:33.307Z,1010.98
2018-06-03T09:44:34.756Z,1010.96
2018-06-03T09:45:36.114Z,1010.98
2018-06-03T09:46:37.520Z,1010.95
2018-06-03T09:47:38.910Z,1010.96
2018-06-03T09:48:40.326Z,1010.96
2018-06-03T09:49:41.737Z,1010.95
2018-06-03T09:50:43.111Z,1010.98
2018-06-03T09:51:44.543Z,1010.99
2018-06-03T09:52:45.953Z,1011.00
2018-06-03T09:53:47.365Z,1011.01
2018-06-03T09:54:48.770Z,1010.96
2018-06-03T09:55:50.167Z,1011.01
2018-06-03T09:56:51.575Z,1010.99
2018-06-03T09:57:52.991Z,1010.97
2018-06-03T09:58:54.391Z,1011.00
2018-06-03T09:59:56.588Z,1010.99
2018-06-03T10:00:57.982Z,1011.00
2018-06-03T10:01:59.419Z,1011.02
2018-06-03T10:03:00.830Z,1011.00
2018-06-03T10:04:02.227Z,1011.05
2018-06-03T10:05:03.627Z,1011.02
2018-06-03T10:06:05.033Z,1011.05
2018-06-03T10:07:06.444Z,1011.04
2018-06-03T10:08:07.884Z,1011.06
2018-06-03T10:09:09.283Z,1011.04
2018-06-03T10:10:10.681Z,1011.08
2018-06-03T10:11:12.078Z,1011.09
2018-06-03T10:12:13.476Z,1011.11
2018-06-03T10:13:14.871Z,1011.10
2018-06-03T10:14:16.274Z,1011.07
2018-06-03T10:15:18.144Z,1011.09
2018-06-03T10:16:19.535Z,1011.10
2018-06-03T10:17:20.999Z,1011.13
2018-06-03T10:18:22.395Z,1011.15
2018-06-03T10:19:23.800Z,1011.14
2018-06-03T10:20:25.204Z,1011.14
2018-06-03T10:21:26.632Z,1011.19
2018-06-03T10:22:27.961Z,1011.14
2018-06-03T10:23:29.326Z,1011.18
2018-06-03T10:24:30.682Z,1011.24
2018-06-03T10:25:32.107Z,1011.16
2018-06-03T10:26:33.511Z,1011.19
2018-06-03T10:27:34.911Z,1011.21
2018-06-03T10:28:36.314Z,1011.21
2018-06-03T10:29:37.718Z,1011.22
2018-06-03T10:30:39.112Z,1011.19
2018-06-03T10:31:40.591Z,1011.22
2018-06-03T10:32:41.992Z,1011.21
2018-06-03T10:33:43.451Z,1011.20
2018-06-03T10:34:44.798Z,1011.22
2018-06-03T10:35:46.217Z,1011.21
2018-06-03T10:36:47.592Z,1011.21
2018-06-03T10:37:48.983Z,1011.20
2018-06-03T10:38:50.381Z,1011.20
2018-06-03T10:39:51.774Z,1011.18
2018-06-03T10:40:53.193Z,1011.19
2018-06-03T10:41:54.556Z,1011.21
2018-06-03T10:42:55.970Z,1011.19
2018-06-03T10:43:57.369Z,1011.20
2018-06-03T10:44:58.806Z,1011.25
2018-06-03T10:46:00.154Z,1011.25
2018-06-03T10:47:01.557Z,1011.19
2018-06-03T10:48:02.957Z,1011.20
2018-06-03T10:49:04.367Z,1011.22
2018-06-03T10:50:05.767Z,1011.18
2018-06-03T10:51:07.200Z,1011.23
2018-06-03T10:52:08.601Z,1011.18
2018-06-03T10:53:09.993Z,1011.19
2018-06-03T10:54:11.413Z,1011.20
2018-06-03T10:55:12.814Z,1011.22
2018-06-03T10:56:14.221Z,1011.20
2018-06-03T10:57:15.621Z,1011.23
2018-06-03T10:58:17.022Z,1011.24
2018-06-03T10:59:18.439Z,1011.21
2018-06-03T11:00:19.860Z,1011.23
2018-06-03T11:01:21.247Z,1011.18
2018-06-03T11:02:22.778Z,1011.19
2018-06-03T11:03:24.194Z,1011.18
2018-06-03T11:04:25.604Z,1011.15
2018-06-03T11:05:26.993Z,1011.14
2018-06-03T11:06:28.409Z,1011.15
2018-06-03T11:07:29.800Z,1011.13
2018-06-03T11:08:31.206Z,1011.16
2018-06-03T11:09:32.613Z,1011.17
2018-06-03T11:10:34.020Z,1011.16
2018-06-03T11:11:35.411Z,1011.18
2018-06-03T11:12:36.835Z,1011.19
2018-06-03T11:13:38.241Z,1011.20
2018-06-03T11:14:39.639Z,1011.20
2018-06-03T11:15:41.048Z,1011.23
2018-06-03T11:16:42.537Z,1011.18
2018-06-03T11:17:43.887Z,1011.16
2018-06-03T11:18:46.227Z,1011.15
2018-06-03T11:19:47.633Z,1011.12
2018-06-03T11:20:49.064Z,1011.10
2018-06-03T11:21:50.455Z,1011.14
2018-06-03T11:22:51.887Z,1011.08
2018-06-03T11:23:53.306Z,1011.06
2018-06-03T11:24:54.723Z,1011.07
2018-06-03T11:25:56.123Z,1011.08
2018-06-03T11:26:57.576Z,1011.07
2018-06-03T11:27:58.969Z,1011.10
2018-06-03T11:29:00.381Z,1011.11
2018-06-03T11:30:01.773Z,1011.05
2018-06-03T11:31:03.430Z,1011.15
2018-06-03T11:32:04.528Z,1011.09
2018-06-03T11:33:05.943Z,1011.10
2018-06-03T11:34:07.386Z,1011.12
2018-06-03T11:35:09.405Z,1011.08
2018-06-03T11:36:10.804Z,1011.02
2018-06-03T11:37:12.220Z,1011.13
2018-06-03T11:38:13.624Z,1011.09
2018-06-03T11:39:15.031Z,1011.06
2018-06-03T11:40:16.431Z,1011.11
2018-06-03T11:41:17.846Z,1011.10
2018-06-03T11:42:19.257Z,1010.99
2018-06-03T11:43:20.655Z,1011.01
2018-06-03T11:44:22.058Z,1010.98
2018-06-03T11:45:23.455Z,1010.98
2018-06-03T11:46:24.882Z,1010.96
2018-06-03T11:47:26.297Z,1010.93
2018-06-03T11:48:27.703Z,1010.98
2018-06-03T11:49:29.117Z,1010.96
2018-06-03T11:50:31.104Z,1010.91
2018-06-03T11:51:32.518Z,1010.92
2018-06-03T11:52:33.933Z,1010.92
2018-06-03T11:53:35.362Z,1011.01
2018-06-03T11:54:36.788Z,1010.92
2018-06-03T11:55:38.188Z,1010.91
2018-06-03T11:56:39.593Z,1010.96
2018-06-03T11:57:41.034Z,1010.98
2018-06-03T11:58:42.455Z,1011.04
2018-06-03T11:59:43.880Z,1010.94
2018-06-03T12:00:45.298Z,1011.01
2018-06-03T12:01:46.723Z,1011.03
2018-06-03T12:02:48.111Z,1011.00
2018-06-03T12:03:49.552Z,1011.03
2018-06-03T12:04:50.966Z,1010.95
2018-06-03T12:05:52.381Z,1010.95
2018-06-03T12:06:54.224Z,1010.94
2018-06-03T12:07:55.632Z,1011.00
2018-06-03T12:08:57.036Z,1010.97
2018-06-03T12:09:58.453Z,1011.03
2018-06-03T12:11:00.737Z,1011.03
2018-06-03T12:12:02.147Z,1011.00
2018-06-03T12:13:03.561Z,1010.97
2018-06-03T12:14:04.983Z,1010.89
2018-06-03T12:15:06.401Z,1010.90
2018-06-03T12:16:07.801Z,1010.89
2018-06-03T12:17:09.227Z,1010.89
2018-06-03T12:18:10.660Z,1010.88
2018-06-03T12:19:12.086Z,1010.87
2018-06-03T12:20:13.488Z,1010.87
2018-06-03T12:21:14.958Z,1010.84
2018-06-03T12:22:17.313Z,1010.82